sensor_id;sensor_type;location;lat;lon;timestamp;pressure;altitude;pressure_sealevel;temperature;humidity
10310;BME280;5200;43.236;27.986;2022-11-13T00:01:08;101724.88;;;9.80;100.00
10310;BME280;5200;43.236;27.986;2022-11-13T00:03:35;101718.28;;;9.72;100.00
10310;BME280;5200;43.236;27.986;2022-11-13T00:06:03;101723.34;;;9.76;100.00
10310;BME280;5200;43.236;27.986;2022-11-13T00:08:30;101710.41;;;9.72;100.00
10310;BME280;5200;43.236;27.986;2022-11-13T00:11:01;101724.69;;;9.83;100.00
10310;BME280;5200;43.236;27.986;2022-11-13T00:13:29;101718.50;;;9.84;100.00
10310;BME280;5200;43.236;27.986;2022-11-13T00:15:57;101720.09;;;9.86;100.00
10310;BME280;5200;43.236;27.986;2022-11-13T00:18:24;101718.31;;;9.87;100.00
10310;BME280;5200;43.236;27.986;2022-11-13T00:20:51;101711.19;;;9.89;100.00
10310;BME280;5200;43.236;27.986;2022-11-13T00:23:19;101707.44;;;9.93;100.00
10310;BME280;5200;43.236;27.986;2022-11-13T00:25:46;101708.19;;;9.95;100.00
10310;BME280;5200;43.236;27.986;2022-11-13T00:28:13;101709.03;;;9.95;100.00
10310;BME280;5200;43.236;27.986;2022-11-13T00:30:40;101700.88;;;10.00;100.00
10310;BME280;5200;43.236;27.986;2022-11-13T00:33:07;101699.16;;;9.99;100.00
10310;BME280;5200;43.236;27.986;2022-11-13T00:35:34;101703.38;;;10.02;100.00
10310;BME280;5200;43.236;27.986;2022-11-13T00:38:01;101696.38;;;10.02;100.00
10310;BME280;5200;43.236;27.986;2022-11-13T00:40:29;101700.69;;;10.03;100.00
10310;BME280;5200;43.236;27.986;2022-11-13T00:42:56;101705.09;;;10.03;100.00
10310;BME280;5200;43.236;27.986;2022-11-13T00:45:23;101699.63;;;10.06;100.00
10310;BME280;5200;43.236;27.986;2022-11-13T00:47:50;101698.81;;;10.05;100.00
10310;BME280;5200;43.236;27.986;2022-11-13T00:50:16;101692.44;;;10.09;100.00
10310;BME280;5200;43.236;27.986;2022-11-13T00:52:43;101690.63;;;10.10;100.00
10310;BME280;5200;43.236;27.986;2022-11-13T00:55:10;101691.47;;;10.10;100.00
10310;BME280;5200;43.236;27.986;2022-11-13T00:57:38;101689.78;;;10.09;100.00
10310;BME280;5200;43.236;27.986;2022-11-13T01:00:06;101694.22;;;10.09;100.00
10310;BME280;5200;43.236;27.986;2022-11-13T01:02:34;101688.84;;;10.10;100.00
10310;BME280;5200;43.236;27.986;2022-11-13T01:05:01;101681.16;;;10.07;100.00
10310;BME280;5200;43.236;27.986;2022-11-13T01:07:28;101685.47;;;10.08;100.00
10310;BME280;5200;43.236;27.986;2022-11-13T01:09:55;101687.25;;;10.08;100.00
10310;BME280;5200;43.236;27.986;2022-11-13T01:12:22;101680.19;;;10.08;100.00
10310;BME280;5200;43.236;27.986;2022-11-13T01:14:50;101691.59;;;10.09;100.00
10310;BME280;5200;43.236;27.986;2022-11-13T01:17:17;101686.41;;;10.07;100.00
10310;BME280;5200;43.236;27.986;2022-11-13T01:19:44;101682.81;;;10.08;100.00
10310;BME280;5200;43.236;27.986;2022-11-13T01:22:10;101680.47;;;10.04;100.00
10310;BME280;5200;43.236;27.986;2022-11-13T01:24:37;101678.53;;;10.07;100.00
10310;BME280;5200;43.236;27.986;2022-11-13T01:27:04;101684.53;;;10.09;100.00
10310;BME280;5200;43.236;27.986;2022-11-13T01:29:31;101683.78;;;10.07;100.00
10310;BME280;5200;43.236;27.986;2022-11-13T01:31:59;101679.34;;;10.08;100.00
10310;BME280;5200;43.236;27.986;2022-11-13T01:34:26;101674.38;;;10.03;100.00
10310;BME280;5200;43.236;27.986;2022-11-13T01:36:53;101676.09;;;10.04;100.00
10310;BME280;5200;43.236;27.986;2022-11-13T01:39:20;101673.34;;;10.06;100.00
10310;BME280;5200;43.236;27.986;2022-11-13T01:41:48;101669.97;;;10.04;100.00
10310;BME280;5200;43.236;27.986;2022-11-13T01:44:17;101671.94;;;10.00;100.00
10310;BME280;5200;43.236;27.986;2022-11-13T01:46:45;101667.03;;;9.94;100.00
10310;BME280;5200;43.236;27.986;2022-11-13T01:49:23;101664.53;;;9.92;100.00
10310;BME280;5200;43.236;27.986;2022-11-13T01:51:54;101663.94;;;9.87;100.00
10310;BME280;5200;43.236;27.986;2022-11-13T01:54:24;101672.03;;;9.84;100.00
10310;BME280;5200;43.236;27.986;2022-11-13T01:56:52;101670.63;;;9.79;100.00
10310;BME280;5200;43.236;27.986;2022-11-13T01:59:23;101667.50;;;9.72;100.00
10310;BME280;5200;43.236;27.986;2022-11-13T02:01:50;101658.03;;;9.69;100.00
10310;BME280;5200;43.236;27.986;2022-11-13T02:04:19;101667.00;;;9.65;100.00
10310;BME280;5200;43.236;27.986;2022-11-13T02:06:50;101667.47;;;9.58;100.00
10310;BME280;5200;43.236;27.986;2022-11-13T02:09:21;101662.56;;;9.51;100.00
10310;BME280;5200;43.236;27.986;2022-11-13T02:11:49;101674.09;;;9.49;100.00
10310;BME280;5200;43.236;27.986;2022-11-13T02:14:17;101674.31;;;9.46;100.00
10310;BME280;5200;43.236;27.986;2022-11-13T02:16:47;101664.91;;;9.42;100.00
10310;BME280;5200;43.236;27.986;2022-11-13T02:19:21;101674.84;;;9.37;100.00
10310;BME280;5200;43.236;27.986;2022-11-13T02:21:56;101665.50;;;9.31;100.00
10310;BME280;5200;43.236;27.986;2022-11-13T02:24:28;101665.03;;;9.24;100.00
10310;BME280;5200;43.236;27.986;2022-11-13T02:26:58;101668.59;;;9.23;100.00
10310;BME280;5200;43.236;27.986;2022-11-13T02:29:26;101667.94;;;9.20;100.00
10310;BME280;5200;43.236;27.986;2022-11-13T02:31:53;101662.94;;;9.15;100.00
10310;BME280;5200;43.236;27.986;2022-11-13T02:34:20;101667.31;;;9.15;100.00
10310;BME280;5200;43.236;27.986;2022-11-13T02:36:47;101665.72;;;9.12;100.00
10310;BME280;5200;43.236;27.986;2022-11-13T02:39:14;101662.72;;;9.04;100.00
10310;BME280;5200;43.236;27.986;2022-11-13T02:41:42;101666.09;;;9.06;100.00
10310;BME280;5200;43.236;27.986;2022-11-13T02:44:09;101673.22;;;9.04;100.00
10310;BME280;5200;43.236;27.986;2022-11-13T02:46:36;101667.28;;;9.00;100.00
10310;BME280;5200;43.236;27.986;2022-11-13T02:49:04;101660.69;;;8.93;100.00
10310;BME280;5200;43.236;27.986;2022-11-13T02:51:32;101680.31;;;9.02;100.00
10310;BME280;5200;43.236;27.986;2022-11-13T02:53:59;101675.16;;;9.00;100.00
10310;BME280;5200;43.236;27.986;2022-11-13T02:56:25;101671.69;;;9.00;100.00
10310;BME280;5200;43.236;27.986;2022-11-13T02:58:54;101667.63;;;8.94;100.00
10310;BME280;5200;43.236;27.986;2022-11-13T03:01:21;101672.78;;;8.96;100.00
10310;BME280;5200;43.236;27.986;2022-11-13T03:03:47;101668.66;;;8.92;100.00
10310;BME280;5200;43.236;27.986;2022-11-13T03:06:14;101673.28;;;8.86;100.00
10310;BME280;5200;43.236;27.986;2022-11-13T03:08:41;101675.19;;;8.84;100.00
10310;BME280;5200;43.236;27.986;2022-11-13T03:11:09;101672.72;;;8.81;100.00
10310;BME280;5200;43.236;27.986;2022-11-13T03:13:37;101664.44;;;8.73;100.00
10310;BME280;5200;43.236;27.986;2022-11-13T03:16:07;101671.22;;;8.77;100.00
10310;BME280;5200;43.236;27.986;2022-11-13T03:18:34;101672.13;;;8.76;100.00
10310;BME280;5200;43.236;27.986;2022-11-13T03:21:05;101667.97;;;8.72;100.00
10310;BME280;5200;43.236;27.986;2022-11-13T03:23:32;101671.34;;;8.74;100.00
10310;BME280;5200;43.236;27.986;2022-11-13T03:26:03;101672.19;;;8.75;100.00
10310;BME280;5200;43.236;27.986;2022-11-13T03:28:30;101675.78;;;8.74;100.00
10310;BME280;5200;43.236;27.986;2022-11-13T03:30:57;101667.97;;;8.72;100.00
10310;BME280;5200;43.236;27.986;2022-11-13T03:33:26;101669.69;;;8.73;100.00
10310;BME280;5200;43.236;27.986;2022-11-13T03:35:53;101664.44;;;8.73;100.00
10310;BME280;5200;43.236;27.986;2022-11-13T03:38:21;101666.03;;;8.76;100.00
10310;BME280;5200;43.236;27.986;2022-11-13T03:40:48;101669.50;;;8.76;100.00
10310;BME280;5200;43.236;27.986;2022-11-13T03:43:15;101660.09;;;8.72;100.00
10310;BME280;5200;43.236;27.986;2022-11-13T03:45:43;101665.78;;;8.80;100.00
10310;BME280;5200;43.236;27.986;2022-11-13T03:48:10;101661.38;;;8.81;100.00
10310;BME280;5200;43.236;27.986;2022-11-13T03:50:39;101651.13;;;8.76;100.00
10310;BME280;5200;43.236;27.986;2022-11-13T03:53:06;101664.84;;;8.81;100.00
10310;BME280;5200;43.236;27.986;2022-11-13T03:55:33;101655.22;;;8.82;100.00
10310;BME280;5200;43.236;27.986;2022-11-13T03:58:00;101653.50;;;8.81;100.00
10310;BME280;5200;43.236;27.986;2022-11-13T04:00:27;101654.25;;;8.83;100.00
10310;BME280;5200;43.236;27.986;2022-11-13T04:02:54;101660.34;;;8.83;100.00
10310;BME280;5200;43.236;27.986;2022-11-13T04:05:21;101604.66;;;8.46;100.00
10310;BME280;5200;43.236;27.986;2022-11-13T04:07:49;101648.16;;;8.82;100.00
10310;BME280;5200;43.236;27.986;2022-11-13T04:10:17;101653.41;;;8.82;100.00
10310;BME280;5200;43.236;27.986;2022-11-13T04:12:44;101651.63;;;8.83;100.00
10310;BME280;5200;43.236;27.986;2022-11-13T04:15:11;101645.81;;;8.78;100.00
10310;BME280;5200;43.236;27.986;2022-11-13T04:17:38;101649.84;;;8.83;100.00
10310;BME280;5200;43.236;27.986;2022-11-13T04:20:07;101656.63;;;8.87;100.00
10310;BME280;5200;43.236;27.986;2022-11-13T04:22:34;101651.13;;;8.92;100.00
10310;BME280;5200;43.236;27.986;2022-11-13T04:25:02;101646.78;;;8.91;100.00
10310;BME280;5200;43.236;27.986;2022-11-13T04:27:29;101644.28;;;8.89;100.00
10310;BME280;5200;43.236;27.986;2022-11-13T04:29:56;101657.47;;;8.88;100.00
10310;BME280;5200;43.236;27.986;2022-11-13T04:32:23;101658.31;;;8.88;100.00
10310;BME280;5200;43.236;27.986;2022-11-13T04:34:50;101661.88;;;8.87;100.00
10310;BME280;5200;43.236;27.986;2022-11-13T04:37:17;101666.38;;;8.85;100.00
10310;BME280;5200;43.236;27.986;2022-11-13T04:39:44;101667.47;;;8.81;100.00
10310;BME280;5200;43.236;27.986;2022-11-13T04:42:12;101670.53;;;8.74;100.00
10310;BME280;5200;43.236;27.986;2022-11-13T04:44:56;101666.63;;;8.65;100.00
10310;BME280;5200;43.236;27.986;2022-11-13T04:47:23;101665.25;;;8.58;100.00
10310;BME280;5200;43.236;27.986;2022-11-13T04:49:50;101667.28;;;8.53;100.00
10310;BME280;5200;43.236;27.986;2022-11-13T04:52:17;101662.38;;;8.46;100.00
10310;BME280;5200;43.236;27.986;2022-11-13T04:54:44;101659.84;;;8.45;100.00
10310;BME280;5200;43.236;27.986;2022-11-13T04:57:12;101659.84;;;8.45;100.00
10310;BME280;5200;43.236;27.986;2022-11-13T04:59:39;101657.31;;;8.43;100.00
10310;BME280;5200;43.236;27.986;2022-11-13T05:02:06;101657.31;;;8.43;100.00
10310;BME280;5200;43.236;27.986;2022-11-13T05:04:33;101662.88;;;8.53;100.00
10310;BME280;5200;43.236;27.986;2022-11-13T05:06:59;101671.53;;;8.55;100.00
10310;BME280;5200;43.236;27.986;2022-11-13T05:09:26;101660.59;;;8.63;100.00
10310;BME280;5200;43.236;27.986;2022-11-13T05:11:53;101659.19;;;8.73;100.00
10310;BME280;5200;43.236;27.986;2022-11-13T05:14:21;101658.81;;;8.79;100.00
10310;BME280;5200;43.236;27.986;2022-11-13T05:16:48;101662.22;;;8.81;100.00
10310;BME280;5200;43.236;27.986;2022-11-13T05:19:16;101654.91;;;8.86;100.00
10310;BME280;5200;43.236;27.986;2022-11-13T05:21:43;101668.47;;;8.95;100.00
10310;BME280;5200;43.236;27.986;2022-11-13T05:24:10;101661.69;;;9.06;100.00
10310;BME280;5200;43.236;27.986;2022-11-13T05:26:38;101670.44;;;9.21;100.00
10310;BME280;5200;43.236;27.986;2022-11-13T05:29:05;101662.47;;;9.39;100.00
10310;BME280;5200;43.236;27.986;2022-11-13T05:31:33;101668.31;;;9.58;100.00
10310;BME280;5200;43.236;27.986;2022-11-13T05:34:02;101661.84;;;9.78;100.00
10310;BME280;5200;43.236;27.986;2022-11-13T05:36:29;101664.06;;;10.00;100.00
10310;BME280;5200;43.236;27.986;2022-11-13T05:38:56;101668.00;;;10.22;100.00
10310;BME280;5200;43.236;27.986;2022-11-13T05:41:23;101666.69;;;10.43;100.00
10310;BME280;5200;43.236;27.986;2022-11-13T05:43:50;101674.81;;;10.67;100.00
10310;BME280;5200;43.236;27.986;2022-11-13T05:46:19;101676.81;;;10.91;100.00
10310;BME280;5200;43.236;27.986;2022-11-13T05:48:53;101678.81;;;11.14;100.00
10310;BME280;5200;43.236;27.986;2022-11-13T05:51:22;101666.44;;;11.29;100.00
10310;BME280;5200;43.236;27.986;2022-11-13T05:53:49;101669.44;;;11.50;100.00
10310;BME280;5200;43.236;27.986;2022-11-13T05:56:18;101680.00;;;11.76;100.00
10310;BME280;5200;43.236;27.986;2022-11-13T05:58:45;101687.41;;;11.96;100.00
10310;BME280;5200;43.236;27.986;2022-11-13T06:01:15;101690.25;;;12.19;100.00
10310;BME280;5200;43.236;27.986;2022-11-13T06:03:42;101673.88;;;12.26;100.00
10310;BME280;5200;43.236;27.986;2022-11-13T06:06:13;101693.06;;;12.54;100.00
10310;BME280;5200;43.236;27.986;2022-11-13T06:08:42;101691.94;;;12.69;100.00
10310;BME280;5200;43.236;27.986;2022-11-13T06:11:10;101695.69;;;12.91;100.00
10310;BME280;5200;43.236;27.986;2022-11-13T06:13:38;101690.25;;;13.05;100.00
10310;BME280;5200;43.236;27.986;2022-11-13T06:16:07;101686.22;;;13.24;99.16
10310;BME280;5200;43.236;27.986;2022-11-13T06:18:35;101695.44;;;13.42;98.27
10310;BME280;5200;43.236;27.986;2022-11-13T06:21:03;101683.50;;;13.61;96.36
10310;BME280;5200;43.236;27.986;2022-11-13T06:23:33;101692.44;;;13.82;94.67
10310;BME280;5200;43.236;27.986;2022-11-13T06:26:01;101686.09;;;13.96;92.96
10310;BME280;5200;43.236;27.986;2022-11-13T06:28:29;101686.09;;;14.07;92.18
10310;BME280;5200;43.236;27.986;2022-11-13T06:31:01;101684.03;;;14.22;92.29
10310;BME280;5200;43.236;27.986;2022-11-13T06:33:29;101689.59;;;14.42;91.66
10310;BME280;5200;43.236;27.986;2022-11-13T06:35:56;101690.09;;;14.58;90.44
10310;BME280;5200;43.236;27.986;2022-11-13T06:38:23;101690.41;;;14.76;89.72
10310;BME280;5200;43.236;27.986;2022-11-13T06:40:51;101687.81;;;14.97;89.23
10310;BME280;5200;43.236;27.986;2022-11-13T06:43:18;101685.72;;;15.12;88.09
10310;BME280;5200;43.236;27.986;2022-11-13T06:45:45;101677.34;;;15.28;87.72
10310;BME280;5200;43.236;27.986;2022-11-13T06:48:12;101685.44;;;15.47;86.29
10310;BME280;5200;43.236;27.986;2022-11-13T06:50:39;101683.72;;;15.57;86.51
10310;BME280;5200;43.236;27.986;2022-11-13T06:53:05;101680.22;;;15.78;85.59
10310;BME280;5200;43.236;27.986;2022-11-13T06:55:32;101674.13;;;15.87;84.90
10310;BME280;5200;43.236;27.986;2022-11-13T06:58:01;101680.78;;;16.02;83.39
10310;BME280;5200;43.236;27.986;2022-11-13T07:00:27;101671.31;;;16.10;82.89
10310;BME280;5200;43.236;27.986;2022-11-13T07:02:54;101668.66;;;15.79;82.16
10310;BME280;5200;43.236;27.986;2022-11-13T07:05:21;101665.91;;;15.69;83.85
10310;BME280;5200;43.236;27.986;2022-11-13T07:07:48;101665.28;;;15.77;83.31
10310;BME280;5200;43.236;27.986;2022-11-13T07:10:15;101671.66;;;15.53;83.22
10310;BME280;5200;43.236;27.986;2022-11-13T07:12:42;101664.31;;;15.36;85.39
10310;BME280;5200;43.236;27.986;2022-11-13T07:15:10;101661.78;;;15.34;87.00
10310;BME280;5200;43.236;27.986;2022-11-13T07:17:37;101663.44;;;15.35;85.63
10310;BME280;5200;43.236;27.986;2022-11-13T07:20:05;101658.22;;;15.45;86.75
10310;BME280;5200;43.236;27.986;2022-11-13T07:22:32;101662.59;;;15.35;86.77
10310;BME280;5200;43.236;27.986;2022-11-13T07:24:59;101656.78;;;15.20;86.57
10310;BME280;5200;43.236;27.986;2022-11-13T07:27:26;101657.66;;;15.09;86.32
10310;BME280;5200;43.236;27.986;2022-11-13T07:29:52;101662.19;;;15.18;85.99
10310;BME280;5200;43.236;27.986;2022-11-13T07:32:21;101654.00;;;15.21;85.88
10310;BME280;5200;43.236;27.986;2022-11-13T07:34:47;101663.81;;;15.31;85.46
10310;BME280;5200;43.236;27.986;2022-11-13T07:37:14;101644.69;;;15.48;85.49
10310;BME280;5200;43.236;27.986;2022-11-13T07:39:41;101643.06;;;15.78;84.93
10310;BME280;5200;43.236;27.986;2022-11-13T07:42:08;101652.31;;;16.04;84.29
10310;BME280;5200;43.236;27.986;2022-11-13T07:44:35;101650.13;;;16.29;82.27
10310;BME280;5200;43.236;27.986;2022-11-13T07:47:02;101646.97;;;16.35;81.98
10310;BME280;5200;43.236;27.986;2022-11-13T07:49:30;101645.84;;;15.97;83.46
10310;BME280;5200;43.236;27.986;2022-11-13T07:51:57;101644.06;;;15.77;83.02
10310;BME280;5200;43.236;27.986;2022-11-13T07:54:24;101647.19;;;15.50;84.52
10310;BME280;5200;43.236;27.986;2022-11-13T07:56:51;101642.94;;;15.58;84.74
10310;BME280;5200;43.236;27.986;2022-11-13T07:59:18;101634.31;;;15.66;85.25
10310;BME280;5200;43.236;27.986;2022-11-13T08:01:45;101648.09;;;15.71;84.01
10310;BME280;5200;43.236;27.986;2022-11-13T08:04:12;101641.69;;;15.74;84.39
10310;BME280;5200;43.236;27.986;2022-11-13T08:06:40;101643.16;;;15.88;84.92
10310;BME280;5200;43.236;27.986;2022-11-13T08:09:07;101644.09;;;15.87;83.06
10310;BME280;5200;43.236;27.986;2022-11-13T08:11:34;101645.81;;;15.46;84.81
10310;BME280;5200;43.236;27.986;2022-11-13T08:14:02;101654.31;;;15.49;85.61
10310;BME280;5200;43.236;27.986;2022-11-13T08:16:28;101642.88;;;15.70;85.40
10310;BME280;5200;43.236;27.986;2022-11-13T08:18:55;101639.47;;;15.79;83.93
10310;BME280;5200;43.236;27.986;2022-11-13T08:21:22;101642.56;;;15.84;83.51
10310;BME280;5200;43.236;27.986;2022-11-13T08:23:54;101639.00;;;15.95;82.89
10310;BME280;5200;43.236;27.986;2022-11-13T08:26:21;101636.50;;;16.03;82.90
10310;BME280;5200;43.236;27.986;2022-11-13T08:28:48;101628.97;;;16.08;81.98
10310;BME280;5200;43.236;27.986;2022-11-13T08:31:15;101635.94;;;15.99;80.36
10310;BME280;5200;43.236;27.986;2022-11-13T08:33:42;101637.88;;;15.97;80.49
10310;BME280;5200;43.236;27.986;2022-11-13T08:36:14;101633.16;;;16.11;80.83
10310;BME280;5200;43.236;27.986;2022-11-13T08:38:43;101628.66;;;16.32;80.33
10310;BME280;5200;43.236;27.986;2022-11-13T08:41:11;101610.50;;;15.97;77.63
10310;BME280;5200;43.236;27.986;2022-11-13T08:43:38;101635.94;;;15.99;79.01
10310;BME280;5200;43.236;27.986;2022-11-13T08:46:05;101637.94;;;16.17;79.57
10310;BME280;5200;43.236;27.986;2022-11-13T08:48:32;101633.56;;;16.37;78.83
10310;BME280;5200;43.236;27.986;2022-11-13T08:50:59;101631.56;;;16.39;76.27
10310;BME280;5200;43.236;27.986;2022-11-13T08:53:25;101630.66;;;16.09;77.55
10310;BME280;5200;43.236;27.986;2022-11-13T08:55:52;101623.81;;;16.06;78.49
10310;BME280;5200;43.236;27.986;2022-11-13T08:58:20;101633.72;;;16.04;78.59
10310;BME280;5200;43.236;27.986;2022-11-13T09:00:47;101617.06;;;16.02;78.04
10310;BME280;5200;43.236;27.986;2022-11-13T09:03:14;101621.38;;;15.94;78.83
10310;BME280;5200;43.236;27.986;2022-11-13T09:05:41;101617.88;;;15.93;78.88
10310;BME280;5200;43.236;27.986;2022-11-13T09:08:08;101617.34;;;15.99;79.51
10310;BME280;5200;43.236;27.986;2022-11-13T09:10:35;101614.09;;;15.96;78.85
10310;BME280;5200;43.236;27.986;2022-11-13T09:13:03;101600.97;;;15.94;78.87
10310;BME280;5200;43.236;27.986;2022-11-13T09:15:31;101603.56;;;16.15;78.92
10310;BME280;5200;43.236;27.986;2022-11-13T09:18:00;101599.97;;;16.26;77.81
10310;BME280;5200;43.236;27.986;2022-11-13T09:20:28;101594.25;;;16.40;78.49
10310;BME280;5200;43.236;27.986;2022-11-13T09:22:56;101592.72;;;16.47;77.15
10310;BME280;5200;43.236;27.986;2022-11-13T09:25:23;101587.69;;;16.44;76.96
10310;BME280;5200;43.236;27.986;2022-11-13T09:27:51;101587.09;;;16.31;76.96
10310;BME280;5200;43.236;27.986;2022-11-13T09:30:19;101581.19;;;16.18;77.03
10310;BME280;5200;43.236;27.986;2022-11-13T09:32:47;101582.28;;;16.05;77.12
10310;BME280;5200;43.236;27.986;2022-11-13T09:35:17;101576.94;;;15.96;77.75
10310;BME280;5200;43.236;27.986;2022-11-13T09:37:58;101569.63;;;15.78;78.39
10310;BME280;5200;43.236;27.986;2022-11-13T09:40:29;101565.44;;;15.76;79.65
10310;BME280;5200;43.236;27.986;2022-11-13T09:42:57;101560.00;;;15.87;79.43
10310;BME280;5200;43.236;27.986;2022-11-13T09:45:25;101562.06;;;15.74;80.43
10310;BME280;5200;43.236;27.986;2022-11-13T09:47:55;101558.91;;;15.90;80.79
10310;BME280;5200;43.236;27.986;2022-11-13T09:50:28;101552.38;;;16.03;79.27
10310;BME280;5200;43.236;27.986;2022-11-13T09:52:55;101551.81;;;16.00;79.36
10310;BME280;5200;43.236;27.986;2022-11-13T09:55:27;101550.69;;;15.93;79.30
10310;BME280;5200;43.236;27.986;2022-11-13T09:58:05;101534.88;;;15.91;78.96
10310;BME280;5200;43.236;27.986;2022-11-13T10:00:36;101547.19;;;15.92;79.36
10310;BME280;5200;43.236;27.986;2022-11-13T10:03:17;101534.56;;;15.84;80.09
10310;BME280;5200;43.236;27.986;2022-11-13T10:05:53;101534.94;;;15.70;81.60
10310;BME280;5200;43.236;27.986;2022-11-13T10:08:28;101540.97;;;15.51;82.88
10310;BME280;5200;43.236;27.986;2022-11-13T10:11:03;101547.41;;;15.49;82.74
10310;BME280;5200;43.236;27.986;2022-11-13T10:13:39;101539.03;;;15.53;83.34
10310;BME280;5200;43.236;27.986;2022-11-13T10:16:15;101531.59;;;15.47;83.32
10310;BME280;5200;43.236;27.986;2022-11-13T10:18:48;101543.56;;;15.62;82.90
10310;BME280;5200;43.236;27.986;2022-11-13T10:21:31;101530.34;;;15.72;82.77
10310;BME280;5200;43.236;27.986;2022-11-13T10:24:03;101525.03;;;15.72;82.27
10310;BME280;5200;43.236;27.986;2022-11-13T10:26:31;101522.69;;;15.48;82.76
10310;BME280;5200;43.236;27.986;2022-11-13T10:29:04;101533.56;;;15.45;82.91
10310;BME280;5200;43.236;27.986;2022-11-13T10:31:41;101525.69;;;15.34;83.32
10310;BME280;5200;43.236;27.986;2022-11-13T10:34:10;101521.22;;;15.34;82.04
10310;BME280;5200;43.236;27.986;2022-11-13T10:36:43;101525.41;;;15.37;83.31
10310;BME280;5200;43.236;27.986;2022-11-13T10:39:15;101515.25;;;15.42;83.47
10310;BME280;5200;43.236;27.986;2022-11-13T10:41:46;101519.84;;;15.40;83.27
10310;BME280;5200;43.236;27.986;2022-11-13T10:44:20;101516.91;;;15.33;84.24
10310;BME280;5200;43.236;27.986;2022-11-13T10:46:47;101509.63;;;15.35;84.19
10310;BME280;5200;43.236;27.986;2022-11-13T10:49:18;101511.69;;;15.53;84.22
10310;BME280;5200;43.236;27.986;2022-11-13T10:51:54;101510.19;;;15.60;84.43
10310;BME280;5200;43.236;27.986;2022-11-13T10:54:22;101514.72;;;15.48;84.55
10310;BME280;5200;43.236;27.986;2022-11-13T10:56:57;101513.59;;;15.41;85.63
10310;BME280;5200;43.236;27.986;2022-11-13T10:59:24;101518.34;;;15.47;86.07
10310;BME280;5200;43.236;27.986;2022-11-13T11:01:51;101511.44;;;15.35;85.59
10310;BME280;5200;43.236;27.986;2022-11-13T11:04:25;101493.06;;;15.12;87.42
10310;BME280;5200;43.236;27.986;2022-11-13T11:06:53;101510.69;;;15.23;86.85
10310;BME280;5200;43.236;27.986;2022-11-13T11:09:22;101508.47;;;15.28;86.57
10310;BME280;5200;43.236;27.986;2022-11-13T11:11:58;101505.78;;;15.18;86.74
10310;BME280;5200;43.236;27.986;2022-11-13T11:15:02;101505.59;;;15.31;87.41
10310;BME280;5200;43.236;27.986;2022-11-13T11:17:36;101498.97;;;15.26;87.34
10310;BME280;5200;43.236;27.986;2022-11-13T11:20:15;101501.63;;;15.26;86.79
10310;BME280;5200;43.236;27.986;2022-11-13T11:22:48;101495.91;;;14.99;88.41
10310;BME280;5200;43.236;27.986;2022-11-13T11:25:22;101506.69;;;14.66;90.29
10310;BME280;5200;43.236;27.986;2022-11-13T11:27:55;101504.69;;;14.58;91.61
10310;BME280;5200;43.236;27.986;2022-11-13T11:30:25;101500.34;;;14.46;91.69
10310;BME280;5200;43.236;27.986;2022-11-13T11:33:03;101501.34;;;14.45;92.78
10310;BME280;5200;43.236;27.986;2022-11-13T11:35:39;101502.28;;;14.44;92.90
10310;BME280;5200;43.236;27.986;2022-11-13T11:38:13;101496.06;;;14.33;94.02
10310;BME280;5200;43.236;27.986;2022-11-13T11:40:45;101502.13;;;14.13;96.17
10310;BME280;5200;43.236;27.986;2022-11-13T11:43:18;101500.44;;;14.23;96.23
10310;BME280;5200;43.236;27.986;2022-11-13T11:45:46;101505.00;;;14.32;96.03
10310;BME280;5200;43.236;27.986;2022-11-13T11:48:16;101497.13;;;14.42;96.14
10310;BME280;5200;43.236;27.986;2022-11-13T11:50:47;101500.50;;;14.44;95.62
10310;BME280;5200;43.236;27.986;2022-11-13T11:53:23;101493.66;;;14.42;95.77
10310;BME280;5200;43.236;27.986;2022-11-13T11:56:14;101499.97;;;14.50;95.48
10310;BME280;5200;43.236;27.986;2022-11-13T11:59:11;101486.38;;;14.55;95.45
10310;BME280;5200;43.236;27.986;2022-11-13T12:01:55;101491.19;;;14.61;94.79
10310;BME280;5200;43.236;27.986;2022-11-13T12:04:39;101486.34;;;14.66;94.73
10310;BME280;5200;43.236;27.986;2022-11-13T12:07:19;101481.31;;;14.63;94.54
10310;BME280;5200;43.236;27.986;2022-11-13T12:09:54;101478.78;;;14.62;94.50
10310;BME280;5200;43.236;27.986;2022-11-13T12:12:36;101474.31;;;14.62;95.10
10310;BME280;5200;43.236;27.986;2022-11-13T12:17:47;101479.38;;;14.65;95.58
10310;BME280;5200;43.236;27.986;2022-11-13T12:20:24;101474.91;;;14.66;96.02
10310;BME280;5200;43.236;27.986;2022-11-13T12:23:02;101478.84;;;14.71;96.15
10310;BME280;5200;43.236;27.986;2022-11-13T12:25:35;101480.78;;;14.69;96.24
10310;BME280;5200;43.236;27.986;2022-11-13T12:28:12;101476.72;;;14.65;96.13
10310;BME280;5200;43.236;27.986;2022-11-13T12:30:45;101474.56;;;14.59;96.26
10310;BME280;5200;43.236;27.986;2022-11-13T12:33:22;101467.09;;;14.53;96.83
10310;BME280;5200;43.236;27.986;2022-11-13T12:35:53;101471.22;;;14.57;96.87
10310;BME280;5200;43.236;27.986;2022-11-13T12:38:31;101474.97;;;14.54;96.65
10310;BME280;5200;43.236;27.986;2022-11-13T12:41:07;101459.16;;;14.53;97.24
10310;BME280;5200;43.236;27.986;2022-11-13T12:43:55;101473.97;;;14.55;97.04
10310;BME280;5200;43.236;27.986;2022-11-13T12:46:33;101464.84;;;14.48;97.38
10310;BME280;5200;43.236;27.986;2022-11-13T12:49:01;101472.06;;;14.46;97.51
10310;BME280;5200;43.236;27.986;2022-11-13T12:51:39;101470.28;;;14.47;97.22
10310;BME280;5200;43.236;27.986;2022-11-13T12:54:09;101469.81;;;14.42;97.31
10310;BME280;5200;43.236;27.986;2022-11-13T12:56:36;101466.69;;;14.36;97.30
10310;BME280;5200;43.236;27.986;2022-11-13T12:59:11;101465.41;;;14.31;97.42
10310;BME280;5200;43.236;27.986;2022-11-13T13:01:43;101474.22;;;14.20;97.86